Terminal Aerodrome Forecast
Issued by NWS Cleveland, OH

Home | Current Version | Previous Version | Graphics & Text | Print | Product List | Glossary On
Versions: 1 2 3 4 5 6 7 8 9 10 11 12 13 14 15 16 17 18 19 20 21 22 23 24 25 26 27 28 29 30
000
FTUS41 KCLE 201700
TAFERI
TAF
KERI 201730Z 2018/2118 24018G28KT 3SM -SHSN SCT015 OVC035
      TEMPO 2018/2022 3/4SM -SHSN SCT008 OVC012
     FM202200 26014G22KT 1SM -SHSN SCT008 OVC012
     FM210700 27012G20KT 3SM -SHSN OVC018=

USA.gov is the U.S. government's official web portal to all federal, state and local government web resources and services.